Oak Hammock Air Park

CAV9 · Manitoba, Canadá

METAR pasados CAV9 · Oak Hammock Air Park

A continuación puedes ver los METAR de los últimos días. Selecciona un año para ver los METAR más antiguos, desde el año 2007 en adelante.

17 de junio de 2024

Hora Código Tiempo Temp. Visibilidad Cielo nuboso Viento METAR/SPECI
01:00
V
14 °C 15 mi - 260° 260° 14 - 20 kt METAR CYWG 170600Z 26014G20KT 15SM FEW064 SCT250 14/09 A2967 RMK SC2CI1 SLP050 DENSITY ALT 1200FT
00:00
V
14 °C 15 mi 25.000 ft 270° 270° 8 kt METAR CYWG 170500Z 27008KT 15SM SCT053 BKN250 14/09 A2964 RMK SC4CI1 SLP042 DENSITY ALT 1200FT

16 de junio de 2024

Hora Código Tiempo Temp. Visibilidad Cielo nuboso Viento METAR/SPECI
23:00
V
16 °C 15 mi - 250° 250° 12 - 17 kt METAR CYWG 170400Z 25012G17KT 15SM FEW064 SCT250 16/09 A2961 RMK SC2CI1 SLP029 DENSITY ALT 1500FT
22:00
V
18 °C 15 mi - 240° 240° 12 - 19 kt METAR CYWG 170300Z 24012G19KT 15SM FEW063 SCT250 18/09 A2958 RMK SC1CI2 SLP019 DENSITY ALT 1700FT
21:00
V
18 °C 15 mi - 240° 240° 13 - 18 kt METAR CYWG 170200Z 24013G18KT 15SM FEW012 SCT250 18/08 A2955 RMK SF1CI3 SLP011 DENSITY ALT 1800FT
20:00
V
19 °C 15 mi - 250° 250° 16 - 28 kt METAR CYWG 170100Z 25016G28KT 15SM FEW090 FEW250 19/08 A2954 RMK AC1CI1 AC TR SLP006 DENSITY ALT 1900FT
19:00
V
20 °C 15 mi - 250° 250° 21 - 37 kt METAR CYWG 170000Z 25021G37KT 15SM FEW250 20/08 A2951 RMK CI1 SLP997 DENSITY ALT 2100FT
18:00
V
21 °C 15 mi - 250° 250° 23 - 32 kt METAR CYWG 162300Z 25023G32KT 15SM FEW035 FEW074 FEW250 21/07 A2950 RMK CF1AC1CI1 CF TR AC TR SLP991 DENSITY ALT 2200FT
17:47
V
22 °C 15 mi - 250° 250° 25 - 31 kt METAR CYWG 162247Z 25025G31KT 15SM FEW030 FEW073 FEW250 22/06 A2949 WS RWY31 RMK CF1AC1CI1 CF TR AC TR SLP989 DENSITY ALT 2300FT
17:00
V
22 °C 15 mi - 250° 250° 21 - 37 kt METAR CYWG 162200Z 25021G37KT 15SM FEW035 FEW250 22/07 A2949 RMK CF1CI1 CF TR SLP988 DENSITY ALT 2300FT
16:00
V
22 °C 15 mi - 240° 240° 21 - 33 kt METAR CYWG 162100Z 24021G33KT 15SM FEW250 22/05 A2949 RMK CI1 SLP987 DENSITY ALT 2300FT
15:00
V
21 °C 15 mi - 250° 250° 21 - 32 kt METAR CYWG 162000Z 25021G32KT 15SM FEW030 FEW250 21/06 A2949 RMK SC1CC1 SC TR SLP989 DENSITY ALT 2200FT
14:00
V
21 °C 15 mi - 240° 240° 21 - 31 kt METAR CYWG 161900Z 24021G31KT 15SM FEW029 FEW250 21/08 A2949 RMK SC1CC1 SC TR SLP989 DENSITY ALT 2200FT
13:00
V
21 °C 15 mi - 240° 240° 21 - 31 kt METAR CYWG 161800Z 24021G31KT 15SM FEW029 FEW120 SCT250 21/13 A2949 RMK SC2AC1CC1 AC TR SLP987 DENSITY ALT 2300FT
12:00
V
22 °C 15 mi 12.000 ft 250° 250° 15 - 25 kt METAR CYWG 161700Z 25015G25KT 15SM SCT029 BKN120 22/15 A2947 RMK SC4AC1 SLP980 DENSITY ALT 2300FT
11:00
V
21 °C 15 mi 15.000 ft 230° 230° 16 - 22 kt METAR CYWG 161600Z 23016G22KT 15SM SCT018 BKN150 BKN250 21/17 A2945 RMK SC4AC1CC1 SLP975 DENSITY ALT 2300FT
10:00
M
20 °C 15 mi 1.200 ft 220° 220° 13 - 22 kt METAR CYWG 161500Z 22013G22KT 15SM BKN012 BKN020 20/18 A2946 RMK SC7SC1 SC TR SLP977 DENSITY ALT 2100FT
09:00
I
18 °C 15 mi 600 ft 180° 180° 15 kt METAR CYWG 161400Z 18015KT 15SM BKN006 OVC150 18/18 A2945 RMK SC6AC2 SLP973 DENSITY ALT 2000FT
08:00
V
17 °C 15 mi 25.000 ft 180° 180° 14 - 21 kt METAR CYWG 161300Z 18014G21KT 15SM FEW007 SCT150 OVC250 17/17 A2946 RMK SC1AC3CI4 SLP976 DENSITY ALT 1800FT
07:00
V
17 °C 15 mi 22.000 ft 170° 170° 9 kt METAR CYWG 161200Z 17009KT 15SM FEW005 SCT150 OVC220 17/17 A2946 RMK SC2AC2CI4 SLP976 DENSITY ALT 1700FT
06:00
V
17 °C 15 mi 12.000 ft 150° 150° 13 kt METAR CYWG 161100Z 15013KT 15SM FEW006 BKN120 OVC160 OVC230 17/16 A2944 RMK SC2AC3AC3CI1 CI TR PRESFR SLP972 DENSITY ALT 1700FT
05:49
V
17 °C 15 mi 13.000 ft 160° 160° 14 kt METAR CYWG 161049Z 16014KT 15SM FEW009 BKN130 OVC230 17/16 A2946 RMK SC1AC6CI1 SLP978 DENSITY ALT 1700FT
05:28
V
17 °C 12 mi 11.000 ft 150° 150° 17 kt METAR CYWG 161028Z 15017KT 12SM -SHRA SCT005 OVC110 17/16 A2947 RMK SC3AC5 PRESFR SLP980 DENSITY ALT 1700FT
05:18
I
17 °C 6 mi 500 ft 150° 150° 16 - 21 kt METAR CYWG 161018Z 15016G21KT 6SM SHRA BR OVC005 17/17 A2949 RMK RA2SC6 SLP986 DENSITY ALT 1700FT
05:00
V
17 °C 15 mi 10.000 ft 160° 160° 11 kt METAR CYWG 161000Z 16011KT 15SM TSRA FEW009 SCT021 OVC100 17/17 A2950 RMK SF1SC2AC5 CB EMBD OCNL LTGICCC OHD DIST LTNG E-SE SLP990 DENSITY ALT 1700FT
04:47
V
17 °C 12 mi 11.000 ft 170° 170° 10 kt METAR CYWG 160947Z 17010KT 12SM TSRA SCT012 OVC110 17/16 A2950 RMK SC4AC4 CB EMBD OCNL LTGIC OHD DIST LTNG E-SE SLP993 DENSITY ALT 1700FT
04:37
I
17 °C 12 mi 900 ft 180° 180° 12 kt METAR CYWG 160937Z 18012KT 12SM -SHRA BKN009 OVC100 17/16 A2951 RMK SC5AC3 FREQ LTG NE-S SLP994 DENSITY ALT 1700FT
04:25
M
17 °C 12 mi 1.300 ft 180° 180° 11 kt METAR CYWG 160925Z 18011KT 12SM -TSRA BKN013 OVC100 17/16 A2951 RMK SC5AC3 CB EMBD CONS LTGIC NE-S SLP996 DENSITY ALT 1700FT
04:09
I
17 °C 6 mi 600 ft 180° 180° 10 - 19 kt METAR CYWG 160909Z 18010G19KT 6SM TSRA BR OVC006 17/17 A2951 RMK SC8 CB EMBD CONS LTGIC N-S SLP996 DENSITY ALT 1700FT
04:00
I
17 °C 2 mi 700 ft 180° 180° 16 - 26 kt METAR CYWG 160900Z 18016G26KT 2SM +TSRA OVC007 17/17 A2951 RMK SC8 CB EMBD CONS LTGIC OHD PRESFR SLP996 DENSITY ALT 1700FT
03:40
I
18 °C 1½ mi 900 ft 220° 220° 18 - 28 kt METAR CYWG 160840Z 22018G28KT 180V250 1 1/2SM +TSRA OVC009 18/18 A2955 RMK SC8 CB EMBD CONS LTGICCC SW-NW PRESRR SLP009 DENSITY ALT 1800FT
03:34
I
19 °C 15 mi 900 ft 200° 200° 19 - 26 kt METAR CYWG 160834Z 20019G26KT 15SM OVC009 19/17 A2953 RMK SC8 FREQ DIST LTNG SW-NW PRESRR SLP000 DENSITY ALT 1900FT
03:00
M
19 °C 15 mi 1.100 ft 160° 160° 15 - 21 kt METAR CYWG 160800Z 16015G21KT 15SM OVC011 19/17 A2946 RMK SC8 SLP978 DENSITY ALT 2000FT
02:26
M
19 °C 15 mi 1.400 ft 170° 170° 12 - 19 kt METAR CYWG 160726Z 17012G19KT 15SM BKN014 BKN120 19/17 A2950 RMK SC5AC2 SLP989 DENSITY ALT 1900FT
02:00
V
19 °C 15 mi 12.000 ft 180° 180° 13 kt METAR CYWG 160700Z 18013KT 15SM FEW016 OVC120 19/17 A2952 RMK SC3AC5 SLP996 DENSITY ALT 1900FT
01:15
V
19 °C 15 mi 12.000 ft 160° 160° 17 kt METAR CYWG 160615Z 16017KT 15SM FEW020 BKN120 BKN160 19/17 A2950 RMK SC2AC3AC2 SLP992 DENSITY ALT 1900FT
01:00
V
19 °C 15 mi 12.000 ft 170° 170° 14 kt METAR CYWG 160600Z 17014KT 15SM -RA BKN120 BKN170 19/17 A2950 RMK AC5AC2 SLP992 DENSITY ALT 1900FT
00:33
V
20 °C 15 mi 16.000 ft 160° 160° 15 - 23 kt METAR CYWG 160533Z 16015G23KT 15SM -RA SCT120 BKN160 20/16 A2951 RMK AC3AC3 SLP994 DENSITY ALT 2000FT
00:00
V
21 °C 15 mi 15.000 ft 180° 180° 18 - 25 kt METAR CYWG 160500Z 18018G25KT 15SM FEW110 BKN150 BKN250 21/15 A2953 RMK AC1AC4CI2 SLP999 DENSITY ALT 2100FT

15 de junio de 2024

Hora Código Tiempo Temp. Visibilidad Cielo nuboso Viento METAR/SPECI
23:00
V
21 °C 15 mi 25.000 ft 180° 180° 15 kt METAR CYWG 160400Z 18015KT 15SM FEW065CB SCT150 BKN250 21/16 A2952 RMK CB1AC2CI3 CB N-NE CB SW FREQ DIST LTNG N-NE FREQ DIST LTNG SW SLP998 DENSITY ALT 2200FT
22:00
V
21 °C 15 mi 15.000 ft 180° 180° 14 kt METAR CYWG 160300Z 18014KT 15SM FEW065CB BKN150 BKN250 21/16 A2952 RMK CB1AC4CI2 CB S SLP999 DENSITY ALT 2200FT
21:00
V
24 °C 15 mi 15.000 ft 170° 170° 24 - 33 kt METAR CYWG 160200Z 17024G33KT 15SM FEW065TCU BKN150 BKN210 24/16 A2952 RMK TCU2AC4CI1 SLP997 DENSITY ALT 2600FT
20:00
V
26 °C 15 mi 4.900 ft 180° 180° 20 - 29 kt METAR CYWG 160100Z 18020G29KT 15SM BKN049 BKN056TCU OVC170 26/15 A2955 RMK SC5TCU1AC2 SLP008 DENSITY ALT 2700FT
19:00
V
27 °C 15 mi 4.700 ft 170° 170° 17 - 23 kt METAR CYWG 160000Z 17017G23KT 15SM BKN047 OVC054 27/17 A2955 RMK SC7SC1 SLP007 DENSITY ALT 2800FT
18:00
V
27 °C 15 mi 4.700 ft 180° 180° 12 - 20 kt METAR CYWG 152300Z 18012G20KT 15SM BKN047 OVC070 27/18 A2956 RMK SC7AC1 AC TR SLP013 DENSITY ALT 2800FT
17:00
V
26 °C 15 mi 4.900 ft 180° 180° 15 - 20 kt METAR CYWG 152200Z 18015G20KT 15SM OVC049 26/17 A2959 RMK SC8 SLP023 DENSITY ALT 2700FT
16:00
V
26 °C 15 mi 4.500 ft 180° 180° 17 - 25 kt METAR CYWG 152100Z 18017G25KT 15SM OVC045 26/18 A2960 RMK SC8 SLP027 DENSITY ALT 2600FT
15:00
V
27 °C 15 mi 4.500 ft 180° 180° 17 - 28 kt METAR CYWG 152000Z 18017G28KT 15SM BKN045 BKN100 27/17 A2963 RMK SC6ACC1 SLP034 DENSITY ALT 2800FT
14:00
V
27 °C 15 mi - 180° 180° 20 - 27 kt METAR CYWG 151900Z 18020G27KT 15SM FEW041 FEW100 SCT250 27/17 A2963 RMK SC1ACC1CC2 SLP037 DENSITY ALT 2700FT
13:00
V
26 °C 15 mi - 190° 190° 15 - 24 kt METAR CYWG 151800Z 19015G24KT 15SM FEW055 FEW120 SCT250 26/17 A2966 RMK CF1AC1CI3 CF TR CONTRAILS SLP045 DENSITY ALT 2600FT
12:00
V
25 °C 15 mi 25.000 ft 180° 180° 17 - 26 kt METAR CYWG 151700Z 18017G26KT 15SM FEW120 BKN250 25/15 A2969 RMK AC1CI5 AC TR CONTRAILS SLP055 DENSITY ALT 2400FT
11:00
V
24 °C 15 mi - 160° 160° 17 - 27 kt METAR CYWG 151600Z CCA 16017G27KT 15SM SCT250 24/15 A2970 RMK CI3 CONTRAILS SLP060 DENSITY ALT 2300FT
10:00
V
22 °C 15 mi - 160° 160° 16 kt METAR CYWG 151500Z 16016KT 15SM FEW070 SCT250 22/15 A2974 RMK AC1CI3 AC TR CONTRAILS SLP072 DENSITY ALT 2000FT
09:00
V
21 °C 15 mi - 150° 150° 14 - 24 kt METAR CYWG 151400Z 15014G24KT 15SM FEW069 FEW091 SCT250 21/15 A2975 RMK AC1AC2CI2 AC TR SLP077 DENSITY ALT 1900FT
08:00
V
19 °C 15 mi - 160° 160° 14 - 19 kt METAR CYWG 151300Z 16014G19KT 15SM SCT073 SCT250 19/14 A2979 RMK AC3CI1 CI TR SLP090 DENSITY ALT 1700FT
07:00
V
17 °C 15 mi - 150° 150° 11 kt METAR CYWG 151200Z 15011KT 15SM FEW160 FEW250 17/14 A2981 RMK AC1CI1 AC TR SLP098 DENSITY ALT 1400FT
06:00
V
16 °C 15 mi - 150° 150° 8 kt METAR CYWG 151100Z 15008KT 15SM FEW160 FEW250 16/14 A2983 RMK AC1CI1 AC TR CI TR SLP104 DENSITY ALT 1200FT
05:00
V
16 °C 15 mi - 160° 160° 9 kt METAR CYWG 151000Z 16009KT 15SM FEW160 FEW250 16/14 A2983 RMK AC1CI1 AC TR CI TR SLP105 DENSITY ALT 1200FT
04:00
V
16 °C 15 mi - 160° 160° 9 kt METAR CYWG 150900Z 16009KT 15SM FEW160 FEW230 16/14 A2984 RMK AC1CC1 AC TR CC TR SLP106 DENSITY ALT 1300FT
03:00
V
16 °C 15 mi - 170° 170° 8 kt METAR CYWG 150800Z 17008KT 15SM FEW160 SCT250 16/13 A2985 RMK AC1CI2 SLP110 DENSITY ALT 1200FT
02:00
V
16 °C 15 mi - 170° 170° 7 kt METAR CYWG 150700Z 17007KT 15SM FEW160 SCT250 16/13 A2985 RMK AC2CI2 SLP111 DENSITY ALT 1300FT
01:00
V
18 °C 15 mi - 220° 220° 7 kt METAR CYWG 150600Z 22007KT 15SM SCT250 18/13 A2986 RMK CI4 SLP114 DENSITY ALT 1500FT
Cambiar esta información